sensor_id;sensor_type;location;lat;lon;timestamp;P1;durP1;ratioP1;P2;durP2;ratioP2
34535;SDS011;20779;55.596;37.538;2022-07-31T00:02:03;7.00;;;2.78;;
34535;SDS011;20779;55.596;37.538;2022-07-31T00:04:30;4.75;;;2.28;;
34535;SDS011;20779;55.596;37.538;2022-07-31T00:06:56;5.85;;;2.55;;
34535;SDS011;20779;55.596;37.538;2022-07-31T00:09:23;9.82;;;3.50;;
34535;SDS011;20779;55.596;37.538;2022-07-31T00:11:49;6.68;;;3.40;;
34535;SDS011;20779;55.596;37.538;2022-07-31T00:14:15;11.52;;;3.17;;
34535;SDS011;20779;55.596;37.538;2022-07-31T00:16:42;6.60;;;2.35;;
34535;SDS011;20779;55.596;37.538;2022-07-31T00:19:08;8.57;;;2.90;;
34535;SDS011;20779;55.596;37.538;2022-07-31T00:21:35;4.63;;;2.53;;
34535;SDS011;20779;55.596;37.538;2022-07-31T00:24:01;6.78;;;2.40;;
34535;SDS011;20779;55.596;37.538;2022-07-31T00:26:28;6.07;;;2.45;;
34535;SDS011;20779;55.596;37.538;2022-07-31T00:28:54;7.35;;;2.65;;
34535;SDS011;20779;55.596;37.538;2022-07-31T00:31:21;5.88;;;2.33;;
34535;SDS011;20779;55.596;37.538;2022-07-31T00:33:48;6.38;;;2.42;;
34535;SDS011;20779;55.596;37.538;2022-07-31T00:36:15;8.50;;;2.70;;
34535;SDS011;20779;55.596;37.538;2022-07-31T00:38:41;5.60;;;2.60;;
34535;SDS011;20779;55.596;37.538;2022-07-31T00:41:07;9.18;;;2.47;;
34535;SDS011;20779;55.596;37.538;2022-07-31T00:43:33;6.53;;;2.97;;
34535;SDS011;20779;55.596;37.538;2022-07-31T00:46:00;5.35;;;2.65;;
34535;SDS011;20779;55.596;37.538;2022-07-31T00:48:27;8.20;;;2.58;;
34535;SDS011;20779;55.596;37.538;2022-07-31T00:50:53;5.68;;;2.83;;
34535;SDS011;20779;55.596;37.538;2022-07-31T00:53:20;4.80;;;2.30;;
34535;SDS011;20779;55.596;37.538;2022-07-31T00:55:47;7.68;;;2.55;;
34535;SDS011;20779;55.596;37.538;2022-07-31T00:58:13;5.20;;;2.60;;
34535;SDS011;20779;55.596;37.538;2022-07-31T01:00:40;5.80;;;2.42;;
34535;SDS011;20779;55.596;37.538;2022-07-31T01:03:06;7.63;;;2.80;;
34535;SDS011;20779;55.596;37.538;2022-07-31T01:05:32;6.75;;;2.42;;
34535;SDS011;20779;55.596;37.538;2022-07-31T01:07:59;5.13;;;2.55;;
34535;SDS011;20779;55.596;37.538;2022-07-31T01:10:34;5.75;;;3.00;;
34535;SDS011;20779;55.596;37.538;2022-07-31T01:13:25;6.43;;;2.83;;
34535;SDS011;20779;55.596;37.538;2022-07-31T01:16:08;7.90;;;3.30;;
34535;SDS011;20779;55.596;37.538;2022-07-31T01:18:36;10.65;;;3.00;;
34535;SDS011;20779;55.596;37.538;2022-07-31T01:21:04;9.05;;;3.22;;
34535;SDS011;20779;55.596;37.538;2022-07-31T01:23:55;7.32;;;2.55;;
34535;SDS011;20779;55.596;37.538;2022-07-31T01:30:53;8.73;;;2.65;;
34535;SDS011;20779;55.596;37.538;2022-07-31T01:33:29;10.35;;;3.38;;
34535;SDS011;20779;55.596;37.538;2022-07-31T01:36:07;8.13;;;3.13;;
34535;SDS011;20779;55.596;37.538;2022-07-31T01:38:41;7.20;;;2.80;;
34535;SDS011;20779;55.596;37.538;2022-07-31T01:41:12;7.30;;;3.15;;
34535;SDS011;20779;55.596;37.538;2022-07-31T01:43:43;9.75;;;2.95;;
34535;SDS011;20779;55.596;37.538;2022-07-31T01:46:13;10.15;;;3.50;;
34535;SDS011;20779;55.596;37.538;2022-07-31T01:48:41;13.68;;;3.10;;
34535;SDS011;20779;55.596;37.538;2022-07-31T01:51:09;9.32;;;2.97;;
34535;SDS011;20779;55.596;37.538;2022-07-31T01:53:38;8.57;;;2.97;;
34535;SDS011;20779;55.596;37.538;2022-07-31T01:56:05;8.30;;;3.03;;
34535;SDS011;20779;55.596;37.538;2022-07-31T01:58:35;7.22;;;2.85;;
34535;SDS011;20779;55.596;37.538;2022-07-31T02:01:17;6.05;;;2.85;;
34535;SDS011;20779;55.596;37.538;2022-07-31T02:03:44;5.57;;;2.38;;
34535;SDS011;20779;55.596;37.538;2022-07-31T02:06:13;6.50;;;2.50;;
34535;SDS011;20779;55.596;37.538;2022-07-31T02:08:44;7.97;;;2.88;;
34535;SDS011;20779;55.596;37.538;2022-07-31T02:11:14;6.72;;;1.85;;
34535;SDS011;20779;55.596;37.538;2022-07-31T02:13:41;9.25;;;2.67;;
34535;SDS011;20779;55.596;37.538;2022-07-31T02:16:08;8.95;;;2.65;;
34535;SDS011;20779;55.596;37.538;2022-07-31T02:18:36;10.00;;;2.10;;
34535;SDS011;20779;55.596;37.538;2022-07-31T02:21:23;7.68;;;2.60;;
34535;SDS011;20779;55.596;37.538;2022-07-31T02:23:50;8.57;;;2.85;;
34535;SDS011;20779;55.596;37.538;2022-07-31T02:26:17;7.93;;;2.80;;
34535;SDS011;20779;55.596;37.538;2022-07-31T02:28:45;7.55;;;2.90;;
34535;SDS011;20779;55.596;37.538;2022-07-31T02:31:12;7.05;;;3.38;;
34535;SDS011;20779;55.596;37.538;2022-07-31T02:33:44;8.20;;;3.20;;
34535;SDS011;20779;55.596;37.538;2022-07-31T02:36:14;9.07;;;2.47;;
34535;SDS011;20779;55.596;37.538;2022-07-31T02:38:44;5.70;;;2.40;;
34535;SDS011;20779;55.596;37.538;2022-07-31T02:41:11;5.72;;;2.58;;
34535;SDS011;20779;55.596;37.538;2022-07-31T02:43:39;6.10;;;2.17;;
34535;SDS011;20779;55.596;37.538;2022-07-31T02:46:18;7.93;;;2.40;;
34535;SDS011;20779;55.596;37.538;2022-07-31T02:48:44;7.10;;;2.28;;
34535;SDS011;20779;55.596;37.538;2022-07-31T02:51:12;7.90;;;2.25;;
34535;SDS011;20779;55.596;37.538;2022-07-31T02:53:40;5.15;;;1.88;;
34535;SDS011;20779;55.596;37.538;2022-07-31T02:56:08;6.22;;;2.30;;
34535;SDS011;20779;55.596;37.538;2022-07-31T02:58:38;4.20;;;1.98;;
34535;SDS011;20779;55.596;37.538;2022-07-31T03:01:15;5.65;;;2.10;;
34535;SDS011;20779;55.596;37.538;2022-07-31T03:03:42;8.32;;;2.40;;
34535;SDS011;20779;55.596;37.538;2022-07-31T03:06:09;9.98;;;2.03;;
34535;SDS011;20779;55.596;37.538;2022-07-31T03:08:36;6.00;;;2.10;;
34535;SDS011;20779;55.596;37.538;2022-07-31T03:11:04;5.70;;;2.22;;
34535;SDS011;20779;55.596;37.538;2022-07-31T03:13:31;8.13;;;2.55;;
34535;SDS011;20779;55.596;37.538;2022-07-31T03:16:01;4.70;;;1.85;;
34535;SDS011;20779;55.596;37.538;2022-07-31T03:18:31;6.22;;;2.22;;
34535;SDS011;20779;55.596;37.538;2022-07-31T03:20:58;6.75;;;2.40;;
34535;SDS011;20779;55.596;37.538;2022-07-31T03:23:25;8.57;;;2.47;;
34535;SDS011;20779;55.596;37.538;2022-07-31T03:26:01;6.53;;;2.88;;
34535;SDS011;20779;55.596;37.538;2022-07-31T03:28:32;6.22;;;2.47;;
34535;SDS011;20779;55.596;37.538;2022-07-31T03:31:00;8.77;;;2.47;;
34535;SDS011;20779;55.596;37.538;2022-07-31T03:33:29;6.85;;;3.00;;
34535;SDS011;20779;55.596;37.538;2022-07-31T03:35:55;8.27;;;2.45;;
34535;SDS011;20779;55.596;37.538;2022-07-31T03:38:22;8.57;;;3.97;;
34535;SDS011;20779;55.596;37.538;2022-07-31T03:40:50;6.53;;;3.13;;
34535;SDS011;20779;55.596;37.538;2022-07-31T03:43:17;6.10;;;2.95;;
34535;SDS011;20779;55.596;37.538;2022-07-31T03:45:45;9.73;;;3.03;;
34535;SDS011;20779;55.596;37.538;2022-07-31T03:48:14;9.93;;;4.38;;
34535;SDS011;20779;55.596;37.538;2022-07-31T03:50:41;5.72;;;3.28;;
34535;SDS011;20779;55.596;37.538;2022-07-31T03:53:08;12.32;;;3.53;;
34535;SDS011;20779;55.596;37.538;2022-07-31T03:55:38;13.75;;;4.13;;
34535;SDS011;20779;55.596;37.538;2022-07-31T03:58:07;10.73;;;3.75;;
34535;SDS011;20779;55.596;37.538;2022-07-31T04:00:34;12.25;;;4.07;;
34535;SDS011;20779;55.596;37.538;2022-07-31T04:03:08;13.63;;;3.88;;
34535;SDS011;20779;55.596;37.538;2022-07-31T04:05:59;8.73;;;3.42;;
34535;SDS011;20779;55.596;37.538;2022-07-31T04:08:26;10.73;;;4.40;;
34535;SDS011;20779;55.596;37.538;2022-07-31T04:10:52;9.07;;;3.28;;
34535;SDS011;20779;55.596;37.538;2022-07-31T04:13:22;8.48;;;2.97;;
34535;SDS011;20779;55.596;37.538;2022-07-31T04:15:49;11.35;;;4.20;;
34535;SDS011;20779;55.596;37.538;2022-07-31T04:18:15;13.82;;;3.50;;
34535;SDS011;20779;55.596;37.538;2022-07-31T04:20:43;8.38;;;3.80;;
34535;SDS011;20779;55.596;37.538;2022-07-31T04:23:10;12.05;;;3.80;;
34535;SDS011;20779;55.596;37.538;2022-07-31T04:26:03;11.40;;;3.75;;
34535;SDS011;20779;55.596;37.538;2022-07-31T04:28:36;9.73;;;4.75;;
34535;SDS011;20779;55.596;37.538;2022-07-31T04:31:02;8.70;;;3.80;;
34535;SDS011;20779;55.596;37.538;2022-07-31T04:33:31;13.40;;;4.22;;
34535;SDS011;20779;55.596;37.538;2022-07-31T04:35:58;10.88;;;3.95;;
34535;SDS011;20779;55.596;37.538;2022-07-31T04:38:25;12.32;;;4.40;;
34535;SDS011;20779;55.596;37.538;2022-07-31T04:40:52;11.23;;;3.50;;
34535;SDS011;20779;55.596;37.538;2022-07-31T04:43:18;14.18;;;3.90;;
34535;SDS011;20779;55.596;37.538;2022-07-31T04:45:45;9.52;;;3.58;;
34535;SDS011;20779;55.596;37.538;2022-07-31T04:48:11;12.30;;;4.03;;
34535;SDS011;20779;55.596;37.538;2022-07-31T04:50:38;11.88;;;4.00;;
34535;SDS011;20779;55.596;37.538;2022-07-31T04:53:04;11.05;;;3.53;;
34535;SDS011;20779;55.596;37.538;2022-07-31T04:55:35;8.00;;;3.40;;
34535;SDS011;20779;55.596;37.538;2022-07-31T04:58:01;5.78;;;3.33;;
34535;SDS011;20779;55.596;37.538;2022-07-31T05:00:28;8.75;;;2.90;;
34535;SDS011;20779;55.596;37.538;2022-07-31T05:02:55;8.55;;;3.05;;
34535;SDS011;20779;55.596;37.538;2022-07-31T05:05:22;9.95;;;3.15;;
34535;SDS011;20779;55.596;37.538;2022-07-31T05:07:48;6.88;;;2.38;;
34535;SDS011;20779;55.596;37.538;2022-07-31T05:13:04;5.65;;;3.00;;
34535;SDS011;20779;55.596;37.538;2022-07-31T05:15:32;6.20;;;2.58;;
34535;SDS011;20779;55.596;37.538;2022-07-31T05:17:58;5.57;;;2.60;;
34535;SDS011;20779;55.596;37.538;2022-07-31T05:20:43;4.15;;;2.10;;
34535;SDS011;20779;55.596;37.538;2022-07-31T05:23:26;5.25;;;2.20;;
34535;SDS011;20779;55.596;37.538;2022-07-31T05:26:11;7.63;;;2.80;;
34535;SDS011;20779;55.596;37.538;2022-07-31T05:28:38;7.25;;;2.22;;
34535;SDS011;20779;55.596;37.538;2022-07-31T05:31:06;4.95;;;1.85;;
34535;SDS011;20779;55.596;37.538;2022-07-31T05:33:34;10.18;;;1.90;;
34535;SDS011;20779;55.596;37.538;2022-07-31T05:36:01;5.93;;;1.95;;
34535;SDS011;20779;55.596;37.538;2022-07-31T05:38:28;7.13;;;1.58;;
34535;SDS011;20779;55.596;37.538;2022-07-31T05:41:21;5.57;;;1.90;;
34535;SDS011;20779;55.596;37.538;2022-07-31T05:44:06;4.97;;;1.40;;
34535;SDS011;20779;55.596;37.538;2022-07-31T05:46:38;4.30;;;1.77;;
34535;SDS011;20779;55.596;37.538;2022-07-31T05:49:05;10.15;;;2.03;;
34535;SDS011;20779;55.596;37.538;2022-07-31T05:51:32;6.18;;;1.83;;
34535;SDS011;20779;55.596;37.538;2022-07-31T05:53:58;4.35;;;1.38;;
34535;SDS011;20779;55.596;37.538;2022-07-31T05:56:43;7.07;;;1.48;;
34535;SDS011;20779;55.596;37.538;2022-07-31T05:59:11;2.78;;;1.10;;
34535;SDS011;20779;55.596;37.538;2022-07-31T06:01:39;2.38;;;1.17;;
34535;SDS011;20779;55.596;37.538;2022-07-31T06:04:05;3.10;;;1.50;;
34535;SDS011;20779;55.596;37.538;2022-07-31T06:06:38;3.30;;;1.33;;
34535;SDS011;20779;55.596;37.538;2022-07-31T06:09:05;3.47;;;1.50;;
34535;SDS011;20779;55.596;37.538;2022-07-31T06:11:37;6.80;;;2.28;;
34535;SDS011;20779;55.596;37.538;2022-07-31T06:14:03;6.63;;;1.60;;
34535;SDS011;20779;55.596;37.538;2022-07-31T06:16:48;1.83;;;1.10;;
34535;SDS011;20779;55.596;37.538;2022-07-31T06:19:15;2.15;;;0.80;;
34535;SDS011;20779;55.596;37.538;2022-07-31T06:21:41;1.08;;;0.60;;
34535;SDS011;20779;55.596;37.538;2022-07-31T06:24:07;4.88;;;0.80;;
34535;SDS011;20779;55.596;37.538;2022-07-31T06:26:41;1.05;;;0.60;;
34535;SDS011;20779;55.596;37.538;2022-07-31T06:29:08;1.13;;;0.70;;
34535;SDS011;20779;55.596;37.538;2022-07-31T06:31:34;3.63;;;1.05;;
34535;SDS011;20779;55.596;37.538;2022-07-31T06:34:02;3.38;;;0.82;;
34535;SDS011;20779;55.596;37.538;2022-07-31T06:36:36;1.67;;;0.60;;
34535;SDS011;20779;55.596;37.538;2022-07-31T06:39:05;1.95;;;0.60;;
34535;SDS011;20779;55.596;37.538;2022-07-31T06:41:34;1.40;;;0.60;;
34535;SDS011;20779;55.596;37.538;2022-07-31T06:44:29;2.33;;;0.68;;
34535;SDS011;20779;55.596;37.538;2022-07-31T06:47:16;1.02;;;0.50;;
34535;SDS011;20779;55.596;37.538;2022-07-31T06:49:51;1.88;;;0.60;;
34535;SDS011;20779;55.596;37.538;2022-07-31T06:52:19;0.93;;;0.60;;
34535;SDS011;20779;55.596;37.538;2022-07-31T06:54:45;1.77;;;1.10;;
34535;SDS011;20779;55.596;37.538;2022-07-31T06:57:12;1.00;;;0.57;;
34535;SDS011;20779;55.596;37.538;2022-07-31T06:59:39;0.80;;;0.63;;
34535;SDS011;20779;55.596;37.538;2022-07-31T07:02:06;0.80;;;0.50;;
34535;SDS011;20779;55.596;37.538;2022-07-31T07:04:33;1.30;;;0.77;;
34535;SDS011;20779;55.596;37.538;2022-07-31T07:06:59;1.95;;;0.90;;
34535;SDS011;20779;55.596;37.538;2022-07-31T07:09:25;2.53;;;0.80;;
34535;SDS011;20779;55.596;37.538;2022-07-31T07:11:52;2.63;;;1.00;;
34535;SDS011;20779;55.596;37.538;2022-07-31T07:14:18;4.75;;;1.42;;
34535;SDS011;20779;55.596;37.538;2022-07-31T07:16:44;4.43;;;1.50;;
34535;SDS011;20779;55.596;37.538;2022-07-31T07:19:11;3.58;;;1.25;;
34535;SDS011;20779;55.596;37.538;2022-07-31T07:21:37;1.50;;;1.00;;
34535;SDS011;20779;55.596;37.538;2022-07-31T07:24:04;3.28;;;1.27;;
34535;SDS011;20779;55.596;37.538;2022-07-31T07:26:43;4.15;;;1.45;;
34535;SDS011;20779;55.596;37.538;2022-07-31T07:29:09;4.72;;;1.50;;
34535;SDS011;20779;55.596;37.538;2022-07-31T07:31:36;4.32;;;1.23;;
34535;SDS011;20779;55.596;37.538;2022-07-31T07:34:03;2.47;;;1.40;;
34535;SDS011;20779;55.596;37.538;2022-07-31T07:36:31;3.63;;;1.23;;
34535;SDS011;20779;55.596;37.538;2022-07-31T07:39:03;2.30;;;1.08;;
34535;SDS011;20779;55.596;37.538;2022-07-31T07:41:31;2.80;;;1.10;;
34535;SDS011;20779;55.596;37.538;2022-07-31T07:43:59;2.35;;;1.00;;
34535;SDS011;20779;55.596;37.538;2022-07-31T07:46:27;2.70;;;1.00;;
34535;SDS011;20779;55.596;37.538;2022-07-31T07:49:04;4.40;;;1.08;;
34535;SDS011;20779;55.596;37.538;2022-07-31T07:51:54;2.25;;;1.13;;
34535;SDS011;20779;55.596;37.538;2022-07-31T07:54:41;2.17;;;1.00;;
34535;SDS011;20779;55.596;37.538;2022-07-31T07:57:19;1.27;;;0.90;;
34535;SDS011;20779;55.596;37.538;2022-07-31T08:00:05;1.52;;;0.98;;
34535;SDS011;20779;55.596;37.538;2022-07-31T08:02:54;1.95;;;1.00;;
34535;SDS011;20779;55.596;37.538;2022-07-31T08:05:20;2.80;;;1.30;;
34535;SDS011;20779;55.596;37.538;2022-07-31T08:07:47;5.60;;;1.00;;
34535;SDS011;20779;55.596;37.538;2022-07-31T08:10:32;4.05;;;1.20;;
34535;SDS011;20779;55.596;37.538;2022-07-31T08:13:05;2.00;;;0.95;;
34535;SDS011;20779;55.596;37.538;2022-07-31T08:16:06;2.33;;;0.85;;
34535;SDS011;20779;55.596;37.538;2022-07-31T08:18:39;5.47;;;1.15;;
34535;SDS011;20779;55.596;37.538;2022-07-31T08:21:05;1.55;;;0.90;;
34535;SDS011;20779;55.596;37.538;2022-07-31T08:23:32;3.60;;;1.10;;
34535;SDS011;20779;55.596;37.538;2022-07-31T08:26:00;2.40;;;1.05;;
34535;SDS011;20779;55.596;37.538;2022-07-31T08:28:29;4.78;;;1.17;;
34535;SDS011;20779;55.596;37.538;2022-07-31T08:30:55;5.95;;;1.17;;
34535;SDS011;20779;55.596;37.538;2022-07-31T08:33:23;4.03;;;1.20;;
34535;SDS011;20779;55.596;37.538;2022-07-31T08:35:54;2.70;;;1.30;;
34535;SDS011;20779;55.596;37.538;2022-07-31T08:38:20;2.53;;;1.30;;
34535;SDS011;20779;55.596;37.538;2022-07-31T08:41:06;5.47;;;1.42;;
34535;SDS011;20779;55.596;37.538;2022-07-31T08:43:32;1.90;;;1.30;;
34535;SDS011;20779;55.596;37.538;2022-07-31T08:45:59;4.90;;;1.58;;
34535;SDS011;20779;55.596;37.538;2022-07-31T08:48:33;2.95;;;1.00;;
34535;SDS011;20779;55.596;37.538;2022-07-31T08:51:06;4.60;;;0.95;;
34535;SDS011;20779;55.596;37.538;2022-07-31T08:53:56;2.90;;;1.33;;
34535;SDS011;20779;55.596;37.538;2022-07-31T08:56:25;6.30;;;1.30;;
34535;SDS011;20779;55.596;37.538;2022-07-31T08:58:54;5.95;;;1.70;;
34535;SDS011;20779;55.596;37.538;2022-07-31T09:01:21;9.00;;;1.80;;
34535;SDS011;20779;55.596;37.538;2022-07-31T09:03:48;6.60;;;1.65;;
34535;SDS011;20779;55.596;37.538;2022-07-31T09:06:14;2.10;;;1.10;;
34535;SDS011;20779;55.596;37.538;2022-07-31T09:08:41;2.42;;;1.40;;
34535;SDS011;20779;55.596;37.538;2022-07-31T09:11:09;13.43;;;1.50;;
34535;SDS011;20779;55.596;37.538;2022-07-31T09:13:54;2.85;;;1.10;;
34535;SDS011;20779;55.596;37.538;2022-07-31T09:16:44;2.78;;;1.63;;
34535;SDS011;20779;55.596;37.538;2022-07-31T09:19:12;3.72;;;1.38;;
34535;SDS011;20779;55.596;37.538;2022-07-31T09:21:40;5.25;;;1.10;;
34535;SDS011;20779;55.596;37.538;2022-07-31T09:24:09;4.32;;;1.10;;
34535;SDS011;20779;55.596;37.538;2022-07-31T09:26:38;2.03;;;1.10;;
34535;SDS011;20779;55.596;37.538;2022-07-31T09:29:06;3.00;;;1.40;;
34535;SDS011;20779;55.596;37.538;2022-07-31T09:31:36;1.70;;;0.80;;
34535;SDS011;20779;55.596;37.538;2022-07-31T09:34:41;2.80;;;1.20;;
34535;SDS011;20779;55.596;37.538;2022-07-31T09:39:59;3.85;;;1.33;;
34535;SDS011;20779;55.596;37.538;2022-07-31T09:42:49;5.78;;;1.65;;
34535;SDS011;20779;55.596;37.538;2022-07-31T09:45:21;2.25;;;1.17;;
34535;SDS011;20779;55.596;37.538;2022-07-31T09:48:02;2.08;;;1.05;;
34535;SDS011;20779;55.596;37.538;2022-07-31T09:50:37;2.97;;;1.10;;
34535;SDS011;20779;55.596;37.538;2022-07-31T09:53:11;4.57;;;1.00;;
34535;SDS011;20779;55.596;37.538;2022-07-31T09:55:53;4.40;;;1.00;;
34535;SDS011;20779;55.596;37.538;2022-07-31T09:58:21;4.13;;;1.10;;
34535;SDS011;20779;55.596;37.538;2022-07-31T10:00:50;6.10;;;2.15;;
34535;SDS011;20779;55.596;37.538;2022-07-31T10:03:19;3.95;;;1.17;;
34535;SDS011;20779;55.596;37.538;2022-07-31T10:05:47;3.47;;;1.20;;
34535;SDS011;20779;55.596;37.538;2022-07-31T10:08:14;3.50;;;1.10;;
34535;SDS011;20779;55.596;37.538;2022-07-31T10:11:01;4.30;;;1.30;;
34535;SDS011;20779;55.596;37.538;2022-07-31T10:13:37;6.45;;;1.50;;
34535;SDS011;20779;55.596;37.538;2022-07-31T10:16:10;4.97;;;1.20;;
34535;SDS011;20779;55.596;37.538;2022-07-31T10:18:44;2.60;;;1.20;;
34535;SDS011;20779;55.596;37.538;2022-07-31T10:21:39;8.38;;;1.48;;
34535;SDS011;20779;55.596;37.538;2022-07-31T10:24:13;1.85;;;1.20;;
34535;SDS011;20779;55.596;37.538;2022-07-31T10:26:44;3.60;;;1.40;;
34535;SDS011;20779;55.596;37.538;2022-07-31T10:29:10;5.00;;;1.30;;
34535;SDS011;20779;55.596;37.538;2022-07-31T10:31:37;5.18;;;1.10;;
34535;SDS011;20779;55.596;37.538;2022-07-31T10:34:04;3.90;;;1.17;;
34535;SDS011;20779;55.596;37.538;2022-07-31T10:36:49;3.13;;;1.10;;
34535;SDS011;20779;55.596;37.538;2022-07-31T10:45:17;3.97;;;1.40;;
34535;SDS011;20779;55.596;37.538;2022-07-31T10:48:01;3.35;;;1.27;;
34535;SDS011;20779;55.596;37.538;2022-07-31T10:51:01;3.13;;;1.67;;
34535;SDS011;20779;55.596;37.538;2022-07-31T10:53:59;1.92;;;1.20;;
34535;SDS011;20779;55.596;37.538;2022-07-31T10:56:46;6.35;;;1.20;;
34535;SDS011;20779;55.596;37.538;2022-07-31T10:59:36;3.97;;;1.35;;
34535;SDS011;20779;55.596;37.538;2022-07-31T11:02:32;4.25;;;1.30;;
34535;SDS011;20779;55.596;37.538;2022-07-31T11:05:30;3.20;;;0.98;;
34535;SDS011;20779;55.596;37.538;2022-07-31T11:08:09;4.80;;;1.65;;
34535;SDS011;20779;55.596;37.538;2022-07-31T11:10:53;2.83;;;1.33;;
34535;SDS011;20779;55.596;37.538;2022-07-31T11:16:56;1.48;;;1.10;;
34535;SDS011;20779;55.596;37.538;2022-07-31T11:19:42;2.10;;;1.00;;
34535;SDS011;20779;55.596;37.538;2022-07-31T11:22:11;2.47;;;1.20;;
34535;SDS011;20779;55.596;37.538;2022-07-31T11:24:40;3.22;;;1.33;;
34535;SDS011;20779;55.596;37.538;2022-07-31T11:27:07;3.28;;;1.15;;
34535;SDS011;20779;55.596;37.538;2022-07-31T11:29:34;4.72;;;1.52;;
34535;SDS011;20779;55.596;37.538;2022-07-31T11:32:12;2.42;;;1.13;;
34535;SDS011;20779;55.596;37.538;2022-07-31T11:34:50;3.42;;;1.13;;
34535;SDS011;20779;55.596;37.538;2022-07-31T11:37:20;3.88;;;1.38;;
34535;SDS011;20779;55.596;37.538;2022-07-31T11:39:53;2.38;;;1.15;;
34535;SDS011;20779;55.596;37.538;2022-07-31T11:42:21;2.78;;;1.20;;
34535;SDS011;20779;55.596;37.538;2022-07-31T11:44:50;1.38;;;0.90;;
34535;SDS011;20779;55.596;37.538;2022-07-31T11:47:16;2.30;;;0.95;;
34535;SDS011;20779;55.596;37.538;2022-07-31T11:49:43;4.13;;;1.00;;
34535;SDS011;20779;55.596;37.538;2022-07-31T11:52:10;2.63;;;1.20;;
34535;SDS011;20779;55.596;37.538;2022-07-31T11:54:37;1.40;;;0.95;;
34535;SDS011;20779;55.596;37.538;2022-07-31T11:57:04;4.75;;;1.10;;
34535;SDS011;20779;55.596;37.538;2022-07-31T11:59:34;2.65;;;1.20;;
34535;SDS011;20779;55.596;37.538;2022-07-31T12:02:07;5.20;;;1.75;;
34535;SDS011;20779;55.596;37.538;2022-07-31T12:04:36;3.63;;;1.10;;
34535;SDS011;20779;55.596;37.538;2022-07-31T12:07:04;2.58;;;1.20;;
34535;SDS011;20779;55.596;37.538;2022-07-31T12:09:32;1.30;;;1.00;;
34535;SDS011;20779;55.596;37.538;2022-07-31T12:11:59;4.03;;;1.00;;
34535;SDS011;20779;55.596;37.538;2022-07-31T12:14:34;4.53;;;1.15;;
34535;SDS011;20779;55.596;37.538;2022-07-31T12:17:03;3.00;;;1.10;;
34535;SDS011;20779;55.596;37.538;2022-07-31T12:19:35;1.40;;;0.90;;
34535;SDS011;20779;55.596;37.538;2022-07-31T12:22:11;2.27;;;1.20;;
34535;SDS011;20779;55.596;37.538;2022-07-31T12:24:43;2.50;;;1.38;;
34535;SDS011;20779;55.596;37.538;2022-07-31T12:27:14;3.50;;;1.02;;
34535;SDS011;20779;55.596;37.538;2022-07-31T12:29:41;3.58;;;1.50;;
34535;SDS011;20779;55.596;37.538;2022-07-31T12:32:08;2.13;;;1.10;;
34535;SDS011;20779;55.596;37.538;2022-07-31T12:34:39;1.67;;;1.02;;
34535;SDS011;20779;55.596;37.538;2022-07-31T12:37:10;2.67;;;1.00;;
34535;SDS011;20779;55.596;37.538;2022-07-31T12:39:59;3.88;;;1.17;;
34535;SDS011;20779;55.596;37.538;2022-07-31T12:42:32;3.45;;;1.10;;
34535;SDS011;20779;55.596;37.538;2022-07-31T12:45:00;1.67;;;1.08;;
34535;SDS011;20779;55.596;37.538;2022-07-31T12:47:29;1.55;;;1.02;;
34535;SDS011;20779;55.596;37.538;2022-07-31T12:49:59;4.93;;;1.30;;
34535;SDS011;20779;55.596;37.538;2022-07-31T12:52:26;7.13;;;1.30;;
34535;SDS011;20779;55.596;37.538;2022-07-31T12:54:55;3.53;;;1.33;;
34535;SDS011;20779;55.596;37.538;2022-07-31T12:57:22;5.60;;;1.27;;
34535;SDS011;20779;55.596;37.538;2022-07-31T12:59:49;8.32;;;1.30;;
34535;SDS011;20779;55.596;37.538;2022-07-31T13:02:15;5.90;;;1.60;;
34535;SDS011;20779;55.596;37.538;2022-07-31T13:04:42;3.92;;;1.27;;
34535;SDS011;20779;55.596;37.538;2022-07-31T13:07:08;3.40;;;1.23;;
34535;SDS011;20779;55.596;37.538;2022-07-31T13:09:35;3.40;;;1.05;;
34535;SDS011;20779;55.596;37.538;2022-07-31T13:12:01;4.05;;;1.27;;
34535;SDS011;20779;55.596;37.538;2022-07-31T13:14:28;3.03;;;1.10;;
34535;SDS011;20779;55.596;37.538;2022-07-31T13:16:55;2.55;;;1.20;;
34535;SDS011;20779;55.596;37.538;2022-07-31T13:19:21;3.25;;;1.02;;
34535;SDS011;20779;55.596;37.538;2022-07-31T13:21:48;2.92;;;1.08;;
34535;SDS011;20779;55.596;37.538;2022-07-31T13:24:14;3.00;;;1.50;;
34535;SDS011;20779;55.596;37.538;2022-07-31T13:26:44;1.38;;;0.90;;
34535;SDS011;20779;55.596;37.538;2022-07-31T13:29:11;1.52;;;0.90;;
34535;SDS011;20779;55.596;37.538;2022-07-31T13:31:38;9.10;;;1.42;;
34535;SDS011;20779;55.596;37.538;2022-07-31T13:34:05;2.95;;;1.20;;
34535;SDS011;20779;55.596;37.538;2022-07-31T13:36:31;3.95;;;0.90;;
34535;SDS011;20779;55.596;37.538;2022-07-31T13:38:57;2.60;;;1.20;;
34535;SDS011;20779;55.596;37.538;2022-07-31T13:41:24;4.97;;;1.23;;
34535;SDS011;20779;55.596;37.538;2022-07-31T13:46:23;3.45;;;1.02;;
34535;SDS011;20779;55.596;37.538;2022-07-31T13:48:51;4.70;;;2.50;;
34535;SDS011;20779;55.596;37.538;2022-07-31T13:51:19;4.90;;;2.25;;
34535;SDS011;20779;55.596;37.538;2022-07-31T13:53:46;4.28;;;1.88;;
34535;SDS011;20779;55.596;37.538;2022-07-31T13:56:14;5.07;;;1.73;;
34535;SDS011;20779;55.596;37.538;2022-07-31T13:58:41;8.35;;;1.30;;
34535;SDS011;20779;55.596;37.538;2022-07-31T14:01:08;3.05;;;1.42;;
34535;SDS011;20779;55.596;37.538;2022-07-31T14:03:35;2.63;;;1.33;;
34535;SDS011;20779;55.596;37.538;2022-07-31T14:06:02;6.15;;;1.38;;
34535;SDS011;20779;55.596;37.538;2022-07-31T14:08:28;2.75;;;1.25;;
34535;SDS011;20779;55.596;37.538;2022-07-31T14:10:55;3.05;;;1.30;;
34535;SDS011;20779;55.596;37.538;2022-07-31T14:13:21;4.03;;;1.35;;
34535;SDS011;20779;55.596;37.538;2022-07-31T14:15:48;3.30;;;1.38;;
34535;SDS011;20779;55.596;37.538;2022-07-31T14:18:15;7.75;;;2.15;;
34535;SDS011;20779;55.596;37.538;2022-07-31T14:20:41;3.97;;;1.92;;
34535;SDS011;20779;55.596;37.538;2022-07-31T14:23:07;3.70;;;1.45;;
34535;SDS011;20779;55.596;37.538;2022-07-31T14:25:34;3.92;;;1.45;;
34535;SDS011;20779;55.596;37.538;2022-07-31T14:28:03;3.20;;;2.00;;
34535;SDS011;20779;55.596;37.538;2022-07-31T14:30:30;4.97;;;1.63;;
34535;SDS011;20779;55.596;37.538;2022-07-31T14:32:58;7.53;;;1.80;;
34535;SDS011;20779;55.596;37.538;2022-07-31T14:35:25;6.38;;;1.88;;
34535;SDS011;20779;55.596;37.538;2022-07-31T14:37:51;2.65;;;1.23;;
34535;SDS011;20779;55.596;37.538;2022-07-31T14:40:18;3.50;;;1.75;;
34535;SDS011;20779;55.596;37.538;2022-07-31T14:42:45;2.78;;;1.40;;
34535;SDS011;20779;55.596;37.538;2022-07-31T14:45:11;9.05;;;1.70;;
34535;SDS011;20779;55.596;37.538;2022-07-31T14:47:38;2.30;;;1.20;;
34535;SDS011;20779;55.596;37.538;2022-07-31T14:50:04;6.03;;;1.60;;
34535;SDS011;20779;55.596;37.538;2022-07-31T14:52:32;3.95;;;1.95;;
34535;SDS011;20779;55.596;37.538;2022-07-31T14:54:58;5.00;;;1.70;;
34535;SDS011;20779;55.596;37.538;2022-07-31T14:57:26;4.72;;;1.60;;
34535;SDS011;20779;55.596;37.538;2022-07-31T14:59:53;3.22;;;1.50;;
34535;SDS011;20779;55.596;37.538;2022-07-31T15:02:19;5.07;;;2.00;;
34535;SDS011;20779;55.596;37.538;2022-07-31T15:04:45;3.67;;;1.92;;
34535;SDS011;20779;55.596;37.538;2022-07-31T15:07:11;6.78;;;2.50;;
34535;SDS011;20779;55.596;37.538;2022-07-31T15:09:38;8.50;;;3.20;;
34535;SDS011;20779;55.596;37.538;2022-07-31T15:12:04;6.30;;;2.13;;
34535;SDS011;20779;55.596;37.538;2022-07-31T15:14:31;7.82;;;3.05;;
34535;SDS011;20779;55.596;37.538;2022-07-31T15:16:58;8.40;;;2.45;;